Time;durP1;ratioP1;P1;durP2;ratioP2;P2;SDS_P1;SDS_P2;PMS_P1;PMS_P2;Temp;Humidity;BMP_temperature;BMP_pressure;BME280_temperature;BME280_humidity;BME280_pressure;Samples;Min_cycle;Max_cycle;Signal;HPM_P1;HPM_P2
2022/01/02 00:00:19;;;;;;;4.93;2.28;;;;;;;-143.35;100.00;58682.94;5008527;28;20042;-47
2022/01/02 00:02:53;;;;;;;2.42;1.90;;;;;;;-143.35;100.00;58682.94;5014073;28;20433;-47
2022/01/02 00:05:22;;;;;;;7.78;2.78;;;;;;;-143.35;100.00;58682.94;5014072;28;20109;-49
2022/01/02 00:07:59;;;;;;;3.33;2.17;;;;;;;-143.35;100.00;58682.94;5013942;28;20117;-48
2022/01/02 00:10:26;;;;;;;5.70;3.05;;;;;;;-143.35;100.00;58682.94;5014064;28;20569;-50
2022/01/02 00:12:57;;;;;;;4.93;3.08;;;;;;;-143.35;100.00;58682.94;5013924;28;20022;-48
2022/01/02 00:15:22;;;;;;;;;;;;;;;-143.35;100.00;58682.94;5014245;28;20054;-47
2022/01/02 00:17:53;;;;;;;7.47;3.55;;;;;;;-143.35;100.00;58682.94;5014037;28;19909;-48
2022/01/02 00:20:31;;;;;;;15.43;4.97;;;;;;;-143.35;100.00;58682.94;5012727;28;20089;-48
2022/01/02 00:23:00;;;;;;;9.60;4.88;;;;;;;-143.35;100.00;58682.94;5014030;28;20026;-49
2022/01/02 00:25:31;;;;;;;7.38;5.43;;;;;;;-143.35;100.00;58682.94;5013921;28;20026;-47
2022/01/02 00:27:57;;;;;;;7.40;4.72;;;;;;;-143.35;100.00;58682.94;5013795;28;20389;-50
2022/01/02 00:30:27;;;;;;;10.73;4.40;;;;;;;-143.35;100.00;58682.94;5013958;28;20045;-47
2022/01/02 00:32:52;;;;;;;8.63;4.65;;;;;;;-143.35;100.00;58682.94;5013759;28;20034;-48
2022/01/02 00:35:18;;;;;;;10.02;3.83;;;;;;;-143.35;100.00;58682.94;5013892;28;20033;-47
2022/01/02 00:37:43;;;;;;;6.72;3.42;;;;;;;-143.35;100.00;58682.94;5013737;28;20021;-47
2022/01/02 00:40:10;;;;;;;9.50;3.67;;;;;;;-143.35;100.00;58682.94;5013821;28;20026;-47
2022/01/02 00:42:38;;;;;;;12.18;3.78;;;;;;;-143.35;100.00;58682.94;5012538;28;20452;-51
2022/01/02 00:45:06;;;;;;;9.40;3.75;;;;;;;-143.35;100.00;58682.94;5014256;28;20028;-48
2022/01/02 00:47:43;;;;;;;5.38;4.00;;;;;;;-143.35;100.00;58682.94;5013702;28;20389;-48
2022/01/02 00:50:22;;;;;;;7.82;3.00;;;;;;;-143.35;100.00;58682.94;5014003;28;20022;-48
2022/01/02 00:52:49;;;;;;;6.38;3.25;;;;;;;-143.35;100.00;58682.94;5013786;28;20030;-48
2022/01/02 00:55:22;;;;;;;6.43;3.78;;;;;;;-143.35;100.00;58682.94;5013727;28;20040;-48
2022/01/02 00:58:00;;;;;;;8.30;4.00;;;;;;;-143.35;100.00;58682.94;5012635;28;20026;-47
2022/01/02 01:00:27;;;;;;;9.25;4.43;;;;;;;-143.35;100.00;58682.94;5017202;28;20432;-48
2022/01/02 01:02:55;;;;;;;5.32;3.97;;;;;;;-143.35;100.00;58682.94;5017150;28;20065;-48
2022/01/02 01:05:27;;;;;;;4.20;3.08;;;;;;;-143.35;100.00;58682.94;5017173;28;20030;-49
2022/01/02 01:07:58;;;;;;;5.03;3.28;;;;;;;-143.35;100.00;58682.94;5016912;28;20029;-47
2022/01/02 01:10:27;;;;;;;7.95;3.67;;;;;;;-143.35;100.00;58682.94;5016947;28;20029;-49
2022/01/02 01:12:55;;;;;;;13.63;4.28;;;;;;;-143.35;100.00;58682.94;5016928;28;20026;-50
2022/01/02 01:15:23;;;;;;;9.07;3.90;;;;;;;-143.35;100.00;58682.94;5016732;28;20066;-48
2022/01/02 01:17:51;;;;;;;6.65;3.55;;;;;;;-143.35;100.00;58682.94;5016945;28;20056;-50
2022/01/02 01:20:17;;;;;;;9.30;3.75;;;;;;;-143.35;100.00;58682.94;5016833;28;20481;-49
2022/01/02 01:22:44;;;;;;;3.67;3.30;;;;;;;-143.35;100.00;58682.94;5016887;28;20036;-48
2022/01/02 01:25:16;;;;;;;5.15;2.85;;;;;;;-143.35;100.00;58682.94;5016607;28;20405;-47
2022/01/02 01:27:45;;;;;;;9.73;3.85;;;;;;;-143.35;100.00;58682.94;5016705;28;20032;-47
2022/01/02 01:30:12;;;;;;;3.95;2.83;;;;;;;-143.35;100.00;58682.94;5016582;28;20022;-49
2022/01/02 01:32:38;;;;;;;10.02;3.38;;;;;;;-143.35;100.00;58682.94;5016656;28;20094;-51
2022/01/02 01:35:05;;;;;;;6.00;2.55;;;;;;;-143.35;100.00;58682.94;5016604;28;20057;-50
2022/01/02 01:37:31;;;;;;;8.00;3.20;;;;;;;-143.35;100.00;58682.94;5016374;28;20030;-48
2022/01/02 01:39:56;;;;;;;6.30;3.08;;;;;;;-143.35;100.00;58682.94;5016380;28;20100;-48
2022/01/02 01:42:33;;;;;;;4.13;2.08;;;;;;;-143.35;100.00;58682.94;5016284;28;20029;-48
2022/01/02 01:47:44;;;;;;;6.13;2.88;;;;;;;-143.35;100.00;58682.94;5016352;28;20477;-49
2022/01/02 01:50:10;;;;;;;5.25;2.22;;;;;;;-143.35;100.00;58682.94;5016319;28;20029;-49
2022/01/02 01:52:35;;;;;;;12.55;3.10;;;;;;;-143.35;100.00;58682.94;5016155;28;20388;-48
2022/01/02 01:55:00;;;;;;;5.47;3.13;;;;;;;-143.35;100.00;58682.94;5016208;28;20528;-48
2022/01/02 01:57:26;;;;;;;9.90;3.05;;;;;;;-143.35;100.00;58682.94;5016041;28;20025;-48
2022/01/02 01:59:51;;;;;;;5.03;2.00;;;;;;;-143.35;100.00;58682.94;5016025;28;20075;-51
2022/01/02 02:02:17;;;;;;;8.15;3.03;;;;;;;-143.35;100.00;58682.94;5016064;28;20033;-48
2022/01/02 02:04:42;;;;;;;12.13;3.65;;;;;;;-143.35;100.00;58682.94;5015921;28;20087;-48
2022/01/02 02:07:08;;;;;;;5.20;3.17;;;;;;;-143.35;100.00;58682.94;5015699;28;20057;-50
2022/01/02 02:09:51;;;;;;;5.75;3.03;;;;;;;-143.35;100.00;58682.94;5015590;28;20029;-49
2022/01/02 02:12:17;;;;;;;6.30;3.38;;;;;;;-143.35;100.00;58682.94;5015839;28;20026;-50
2022/01/02 02:14:42;;;;;;;7.18;2.92;;;;;;;-143.35;100.00;58682.94;5015648;28;20057;-47
2022/01/02 02:17:07;;;;;;;4.05;2.55;;;;;;;-143.35;100.00;58682.94;5015694;28;20020;-48
2022/01/02 02:19:33;;;;;;;7.30;3.40;;;;;;;-143.35;100.00;58682.94;5015682;28;20088;-49
2022/01/02 02:21:58;;;;;;;2.75;2.55;;;;;;;-143.35;100.00;58682.94;5015626;28;20018;-47
2022/01/02 02:24:23;;;;;;;14.45;2.45;;;;;;;-143.35;100.00;58682.94;5014474;28;20036;-48
2022/01/02 02:26:49;;;;;;;5.40;2.47;;;;;;;-143.35;100.00;58682.94;5015516;28;20401;-50
2022/01/02 02:29:14;;;;;;;3.15;2.22;;;;;;;-143.35;100.00;58682.94;5015552;28;20025;-48
2022/01/02 02:31:41;;;;;;;4.65;1.60;;;;;;;-143.35;100.00;58682.94;5015583;28;20054;-49
2022/01/02 02:34:06;;;;;;;9.05;2.25;;;;;;;-143.35;100.00;58682.94;5015432;28;20030;-48
2022/01/02 02:36:32;;;;;;;4.47;1.98;;;;;;;-143.35;100.00;58682.94;5015383;28;20113;-49
2022/01/02 02:38:57;;;;;;;2.88;2.30;;;;;;;-143.35;100.00;58682.94;5015380;28;20026;-51
2022/01/02 02:41:23;;;;;;;6.75;2.65;;;;;;;-143.35;100.00;58682.94;5015344;28;20025;-50
2022/01/02 02:44:07;;;;;;;4.68;2.33;;;;;;;-143.35;100.00;58682.94;5015276;28;20377;-49
2022/01/02 02:49:16;;;;;;;8.70;2.67;;;;;;;-143.35;100.00;58682.94;5015582;28;20037;-49
2022/01/02 02:51:50;;;;;;;;;;;;;;;;;;;;;
2022/01/02 02:54:09;;;;;;;5.90;1.98;;;;;;;-143.35;100.00;58682.94;5015019;28;20128;-51
2022/01/02 02:56:54;;;;;;;7.68;2.20;;;;;;;-143.35;100.00;58682.94;5015121;28;20523;-49
2022/01/02 02:59:20;;;;;;;3.80;2.13;;;;;;;-143.35;100.00;58682.94;5015039;28;20034;-50
2022/01/02 03:01:45;;;;;;;6.47;2.22;;;;;;;-143.35;100.00;58682.94;5014910;28;20496;-49
2022/01/02 03:04:11;;;;;;;9.55;2.17;;;;;;;-143.35;100.00;58682.94;5014829;28;20018;-51
2022/01/02 03:06:36;;;;;;;10.73;3.40;;;;;;;-143.35;100.00;58682.94;5014858;28;20032;-48
2022/01/02 03:09:08;;;;;;;6.72;2.30;;;;;;;-143.35;100.00;58682.94;5014760;28;20045;-51
2022/01/02 03:11:34;;;;;;;4.20;2.17;;;;;;;-143.35;100.00;58682.94;5014869;28;20026;-49
2022/01/02 03:13:59;;;;;;;5.60;2.08;;;;;;;-143.35;100.00;58682.94;5021523;23;20056;-51
2022/01/02 03:16:24;;;;;;;3.85;2.00;;;;;;;-143.35;100.00;58682.94;5014681;28;20083;-51
2022/01/02 03:18:50;;;;;;;3.80;2.40;;;;;;;-143.35;100.00;58682.94;5013544;28;20033;-48
2022/01/02 03:21:15;;;;;;;15.70;3.03;;;;;;;-143.35;100.00;58682.94;5014185;28;20061;-51
2022/01/02 03:23:41;;;;;;;3.35;2.25;;;;;;;-143.35;100.00;58682.94;5014103;28;20113;-49
2022/01/02 03:26:07;;;;;;;4.82;1.80;;;;;;;-143.35;100.00;58682.94;5014544;28;20125;-50
2022/01/02 03:28:32;;;;;;;7.13;2.35;;;;;;;-143.35;100.00;58682.94;5014519;28;20144;-50
2022/01/02 03:30:58;;;;;;;4.90;2.28;;;;;;;-143.35;100.00;58682.94;5014456;28;20025;-50
2022/01/02 03:33:23;;;;;;;8.23;3.00;;;;;;;-143.35;100.00;58682.94;5015289;28;20018;-48
2022/01/02 03:35:48;;;;;;;3.17;1.85;;;;;;;-143.35;100.00;58682.94;5014730;28;20038;-49
2022/01/02 03:38:14;;;;;;;3.30;1.20;;;;;;;-143.35;100.00;58682.94;5014519;28;20034;-48
2022/01/02 03:40:40;;;;;;;3.45;2.20;;;;;;;-143.35;100.00;58682.94;5014510;28;20029;-49
2022/01/02 03:43:06;;;;;;;8.52;3.15;;;;;;;-143.35;100.00;58682.94;5014525;28;20025;-48
2022/01/02 03:45:31;;;;;;;1.95;1.73;;;;;;;-143.35;100.00;58682.94;5014354;28;20058;-48
2022/01/02 03:47:57;;;;;;;3.60;1.85;;;;;;;-143.35;100.00;58682.94;5014285;28;20075;-49
2022/01/02 03:50:22;;;;;;;1.55;1.45;;;;;;;-143.35;100.00;58682.94;5014255;28;20488;-48
2022/01/02 03:52:48;;;;;;;3.40;2.30;;;;;;;-143.35;100.00;58682.94;5012226;28;20029;-49
2022/01/02 03:55:14;;;;;;;4.47;2.35;;;;;;;-143.35;100.00;58682.94;5014237;28;20029;-49
2022/01/02 03:57:40;;;;;;;3.28;1.92;;;;;;;-143.35;100.00;58682.94;5014326;28;20073;-49
2022/01/02 04:00:09;;;;;;;5.20;2.15;;;;;;;-143.35;100.00;58682.94;5014128;28;20221;-50
2022/01/02 04:02:37;;;;;;;5.47;1.92;;;;;;;-143.35;100.00;58682.94;5014097;28;20488;-52
2022/01/02 04:05:07;;;;;;;6.15;1.83;;;;;;;-143.35;100.00;58682.94;5013485;28;20025;-49
2022/01/02 04:07:33;;;;;;;3.17;2.05;;;;;;;-143.35;100.00;58682.94;5014193;28;20041;-51
2022/01/02 04:10:02;;;;;;;2.17;1.98;;;;;;;-143.35;100.00;58682.94;5013969;28;20025;-49
2022/01/02 04:12:28;;;;;;;5.68;2.35;;;;;;;-143.35;100.00;58682.94;5014285;28;20022;-48
2022/01/02 04:14:53;;;;;;;6.43;3.10;;;;;;;-143.35;100.00;58682.94;5013845;28;20054;-52
2022/01/02 04:17:19;;;;;;;5.68;2.25;;;;;;;-143.35;100.00;58682.94;5013983;28;20018;-49
2022/01/02 04:19:44;;;;;;;7.13;2.70;;;;;;;-143.35;100.00;58682.94;5014010;28;20060;-49
2022/01/02 04:22:09;;;;;;;4.60;2.22;;;;;;;-143.35;100.00;58682.94;5014066;28;20113;-51
2022/01/02 04:24:34;;;;;;;8.57;2.92;;;;;;;-143.35;100.00;58682.94;5014036;28;20029;-50
2022/01/02 04:27:00;;;;;;;8.50;2.03;;;;;;;-143.35;100.00;58682.94;5013783;28;20057;-49
2022/01/02 04:29:25;;;;;;;1.85;1.75;;;;;;;-143.35;100.00;58682.94;5012719;28;20029;-50
2022/01/02 04:31:51;;;;;;;8.18;2.05;;;;;;;-143.35;100.00;58682.94;5013934;28;20037;-49
2022/01/02 04:34:16;;;;;;;2.03;1.83;;;;;;;-143.35;100.00;58682.94;5016134;28;20033;-51
2022/01/02 04:36:41;;;;;;;1.65;1.55;;;;;;;-143.35;100.00;58682.94;5017685;28;20080;-49
2022/01/02 04:39:07;;;;;;;3.78;2.10;;;;;;;-143.35;100.00;58682.94;5017620;28;20442;-50
2022/01/02 04:41:32;;;;;;;3.22;1.83;;;;;;;-143.35;100.00;58682.94;5017628;28;20060;-49
2022/01/02 04:43:57;;;;;;;3.22;2.22;;;;;;;-143.35;100.00;58682.94;5017546;28;20022;-49
2022/01/02 04:46:23;;;;;;;3.53;2.03;;;;;;;-143.35;100.00;58682.94;5017509;28;20116;-49
2022/01/02 04:48:48;;;;;;;1.75;1.58;;;;;;;-143.35;100.00;58682.94;5017582;28;20060;-52
2022/01/02 04:51:13;;;;;;;4.88;2.60;;;;;;;-143.35;100.00;58682.94;5017358;28;20029;-49
2022/01/02 04:53:46;;;;;;;9.30;2.60;;;;;;;-143.35;100.00;58682.94;5017431;28;20488;-50
2022/01/02 04:56:12;;;;;;;4.90;2.10;;;;;;;-143.35;100.00;58682.94;5017391;28;20025;-52
2022/01/02 04:58:37;;;;;;;4.15;2.33;;;;;;;-143.35;100.00;58682.94;5017369;28;20033;-49
2022/01/02 05:01:03;;;;;;;2.80;2.33;;;;;;;-143.35;100.00;58682.94;5017183;28;20474;-50
2022/01/02 05:03:28;;;;;;;5.20;2.08;;;;;;;-143.35;100.00;58682.94;5017310;28;20517;-51
2022/01/02 05:05:53;;;;;;;3.88;1.52;;;;;;;-143.35;100.00;58682.94;5017086;28;20116;-51
2022/01/02 05:08:18;;;;;;;2.42;1.92;;;;;;;-143.35;100.00;58682.94;5016924;28;20076;-50
2022/01/02 05:10:44;;;;;;;7.60;1.92;;;;;;;-143.35;100.00;58682.94;5017071;28;20499;-50
2022/01/02 05:13:09;;;;;;;3.20;2.15;;;;;;;-143.35;100.00;58682.94;5016881;28;20376;-49
2022/01/02 05:15:35;;;;;;;3.70;2.05;;;;;;;-143.35;100.00;58682.94;5016809;28;20133;-49
2022/01/02 05:18:00;;;;;;;2.00;1.70;;;;;;;-143.35;100.00;58682.94;5016944;28;20028;-49
2022/01/02 05:20:25;;;;;;;6.05;1.90;;;;;;;-143.35;100.00;58682.94;5016796;28;20026;-50
2022/01/02 05:22:51;;;;;;;9.98;1.60;;;;;;;-143.35;100.00;58682.94;5016787;28;20018;-49
2022/01/02 05:25:17;;;;;;;2.03;1.88;;;;;;;-143.35;100.00;58682.94;5016807;28;20127;-50
2022/01/02 05:27:42;;;;;;;3.92;2.25;;;;;;;-143.35;100.00;58682.94;5016725;28;20053;-52
2022/01/02 05:30:09;;;;;;;3.78;2.50;;;;;;;-143.35;100.00;58682.94;5017139;28;20137;-50
2022/01/02 05:32:34;;;;;;;3.72;2.70;;;;;;;-143.35;100.00;58682.94;5016737;28;20481;-48
2022/01/02 05:34:59;;;;;;;1.63;1.52;;;;;;;-143.35;100.00;58682.94;5015493;28;20034;-49
2022/01/02 05:37:25;;;;;;;4.75;2.13;;;;;;;-143.35;100.00;58682.94;5016619;28;20010;-49
2022/01/02 05:39:50;;;;;;;11.15;2.13;;;;;;;-143.35;100.00;58682.94;5016522;28;20069;-48
2022/01/02 05:42:15;;;;;;;5.93;2.15;;;;;;;-143.35;100.00;58682.94;5016515;28;20021;-49
2022/01/02 05:44:41;;;;;;;7.47;2.13;;;;;;;-143.35;100.00;58682.94;5015674;28;20026;-49
2022/01/02 05:47:06;;;;;;;4.05;1.83;;;;;;;-143.35;100.00;58682.94;5016239;28;20026;-48
2022/01/02 05:49:31;;;;;;;1.67;1.38;;;;;;;-143.35;100.00;58682.94;5016383;28;20033;-49
2022/01/02 05:51:57;;;;;;;2.90;1.70;;;;;;;-143.35;100.00;58682.94;5016291;28;20058;-49
2022/01/02 05:54:22;;;;;;;5.05;2.05;;;;;;;-143.35;100.00;58682.94;5016247;28;20029;-49
2022/01/02 05:56:47;;;;;;;8.70;1.70;;;;;;;-143.35;100.00;58682.94;5016209;28;20026;-48
2022/01/02 05:59:13;;;;;;;3.28;1.77;;;;;;;-143.35;100.00;58682.94;5016159;28;20496;-50
2022/01/02 06:01:38;;;;;;;6.38;1.90;;;;;;;-143.35;100.00;58682.94;5016174;28;20472;-49
2022/01/02 06:04:03;;;;;;;7.35;1.67;;;;;;;-143.35;100.00;58682.94;5016042;28;20073;-52
2022/01/02 06:06:29;;;;;;;3.78;1.88;;;;;;;-143.35;100.00;58682.94;5016008;28;20053;-49
2022/01/02 06:08:54;;;;;;;2.58;1.83;;;;;;;-143.35;100.00;58682.94;5015884;28;20049;-50
2022/01/02 06:11:19;;;;;;;2.25;1.85;;;;;;;-143.35;100.00;58682.94;5014716;28;20029;-49
2022/01/02 06:13:45;;;;;;;2.85;1.65;;;;;;;-143.35;100.00;58682.94;5015589;28;20042;-50
2022/01/02 06:16:11;;;;;;;4.95;2.03;;;;;;;-143.35;100.00;58682.94;5015763;28;20049;-52
2022/01/02 06:18:37;;;;;;;1.60;1.25;;;;;;;-143.35;100.00;58682.94;5015834;28;20053;-49
2022/01/02 06:21:03;;;;;;;1.95;1.63;;;;;;;-143.35;100.00;58682.94;5015638;28;20539;-51
2022/01/02 06:23:28;;;;;;;5.35;1.73;;;;;;;-143.35;100.00;58682.94;5015672;28;20026;-49
2022/01/02 06:25:53;;;;;;;6.18;1.60;;;;;;;-143.35;100.00;58682.94;5015706;28;20025;-49
2022/01/02 06:28:18;;;;;;;4.70;1.33;;;;;;;-143.35;100.00;58682.94;5015572;28;20044;-49
2022/01/02 06:30:44;;;;;;;1.83;1.35;;;;;;;-143.35;100.00;58682.94;5015546;28;20109;-50
2022/01/02 06:33:09;;;;;;;3.88;1.35;;;;;;;-143.35;100.00;58682.94;5015494;28;20030;-49
2022/01/02 06:35:35;;;;;;;0.73;0.65;;;;;;;-143.35;100.00;58682.94;5015562;28;20052;-49
2022/01/02 06:38:20;;;;;;;10.93;2.03;;;;;;;-143.35;100.00;58682.94;5015444;28;20026;-49
2022/01/02 06:40:45;;;;;;;1.90;1.52;;;;;;;-143.35;100.00;58682.94;5015513;28;20025;-52
2022/01/02 06:43:13;;;;;;;6.43;2.17;;;;;;;-143.35;100.00;58682.94;5015429;28;20504;-51
2022/01/02 06:45:38;;;;;;;3.60;1.48;;;;;;;-143.35;100.00;58682.94;5015291;28;20556;-51
2022/01/02 06:48:04;;;;;;;1.33;1.23;;;;;;;-143.35;100.00;58682.94;5015219;28;20135;-51
2022/01/02 06:50:30;;;;;;;4.18;1.33;;;;;;;-143.35;100.00;58682.94;5015322;28;20087;-48
2022/01/02 06:52:55;;;;;;;2.22;1.55;;;;;;;-143.35;100.00;58682.94;5013957;28;20038;-49
2022/01/02 06:55:23;;;;;;;9.02;1.58;;;;;;;-143.35;100.00;58682.94;5015085;28;20029;-48
2022/01/02 06:57:49;;;;;;;2.15;1.45;;;;;;;-143.35;100.00;58682.94;5015062;28;20083;-50
2022/01/02 07:00:14;;;;;;;1.38;1.27;;;;;;;-143.35;100.00;58682.94;5015192;28;20049;-48
2022/01/02 07:02:39;;;;;;;5.97;1.58;;;;;;;-143.35;100.00;58682.94;5014832;28;20441;-50
2022/01/02 07:05:05;;;;;;;3.70;1.60;;;;;;;-143.35;100.00;58682.94;5014978;28;20057;-51
2022/01/02 07:07:30;;;;;;;1.52;1.27;;;;;;;-143.35;100.00;58682.94;5014903;28;20044;-51
2022/01/02 07:09:56;;;;;;;6.80;2.10;;;;;;;-143.35;100.00;58682.94;5014992;28;20022;-51
2022/01/02 07:12:23;;;;;;;4.10;1.40;;;;;;;-143.35;100.00;58682.94;5014891;28;20055;-48
2022/01/02 07:14:51;;;;;;;4.20;1.60;;;;;;;-143.35;100.00;58682.94;5014697;28;20049;-49
2022/01/02 07:17:17;;;;;;;6.60;2.05;;;;;;;-143.35;100.00;58682.94;5014641;28;20030;-48
2022/01/02 07:19:42;;;;;;;1.38;1.27;;;;;;;-143.35;100.00;58682.94;5014804;28;20022;-49
2022/01/02 07:22:08;;;;;;;3.13;1.85;;;;;;;-143.35;100.00;58682.94;5014815;28;20072;-48
2022/01/02 07:24:34;;;;;;;3.67;1.50;;;;;;;-143.35;100.00;58682.94;5014683;28;20072;-49
2022/01/02 07:26:59;;;;;;;5.50;1.55;;;;;;;-143.35;100.00;58682.94;5014576;28;20068;-49
2022/01/02 07:29:25;;;;;;;3.65;1.63;;;;;;;-143.35;100.00;58682.94;5014686;28;20378;-49
2022/01/02 07:31:50;;;;;;;2.28;1.65;;;;;;;-143.35;100.00;58682.94;5014512;28;20064;-51
2022/01/02 07:34:16;;;;;;;1.60;1.27;;;;;;;-143.35;100.00;58682.94;5014570;28;20033;-48
2022/01/02 07:36:44;;;;;;;4.60;1.90;;;;;;;-143.35;100.00;58682.94;5014449;28;20032;-49
2022/01/02 07:39:11;;;;;;;3.85;1.52;;;;;;;-143.35;100.00;58682.94;5014434;28;20034;-50
2022/01/02 07:41:37;;;;;;;2.75;1.92;;;;;;;-143.35;100.00;58682.94;5014427;28;20022;-50
2022/01/02 07:44:03;;;;;;;4.60;2.80;;;;;;;-143.35;100.00;58682.94;5014350;28;20496;-51
2022/01/02 07:46:30;;;;;;;4.47;2.08;;;;;;;-143.35;100.00;58682.94;5014386;28;20026;-48
2022/01/02 07:48:56;;;;;;;1.83;1.33;;;;;;;-143.35;100.00;58682.94;5014311;28;20038;-48
2022/01/02 07:51:21;;;;;;;2.85;1.42;;;;;;;-143.35;100.00;58682.94;5014557;28;20047;-51
2022/01/02 07:53:46;;;;;;;1.52;1.10;;;;;;;-143.35;100.00;58682.94;5014476;28;20025;-48
2022/01/02 07:56:12;;;;;;;10.77;1.58;;;;;;;-143.35;100.00;58682.94;5014235;28;20026;-48
2022/01/02 07:58:38;;;;;;;1.83;1.67;;;;;;;-143.35;100.00;58682.94;5014232;28;20021;-50
2022/01/02 08:01:03;;;;;;;1.48;1.38;;;;;;;-143.35;100.00;58682.94;5014199;28;20529;-49
2022/01/02 08:03:28;;;;;;;5.85;1.85;;;;;;;-143.35;100.00;58682.94;5014206;28;20493;-50
2022/01/02 08:05:54;;;;;;;6.47;1.52;;;;;;;-143.35;100.00;58682.94;5014250;28;20536;-51
2022/01/02 08:08:19;;;;;;;2.50;1.88;;;;;;;-143.35;100.00;58682.94;5014961;28;20484;-49
2022/01/02 08:10:44;;;;;;;3.25;1.85;;;;;;;-143.35;100.00;58682.94;5018122;28;20018;-48
2022/01/02 08:13:10;;;;;;;2.08;1.83;;;;;;;-143.35;100.00;58682.94;5018233;28;20029;-49
2022/01/02 08:15:35;;;;;;;2.67;1.88;;;;;;;-143.35;100.00;58682.94;5018008;28;20509;-49
2022/01/02 08:18:01;;;;;;;4.00;1.73;;;;;;;-143.35;100.00;58682.94;5018757;28;20368;-48
2022/01/02 08:20:27;;;;;;;1.95;1.75;;;;;;;-143.35;100.00;58682.94;5018324;28;20038;-48
2022/01/02 08:22:53;;;;;;;1.58;1.48;;;;;;;-143.35;100.00;58682.94;5018128;28;20088;-48
2022/01/02 08:25:18;;;;;;;4.07;1.73;;;;;;;-143.35;100.00;58682.94;5017979;28;20428;-48
2022/01/02 08:27:43;;;;;;;4.20;2.05;;;;;;;-143.35;100.00;58682.94;5017798;28;20057;-49
2022/01/02 08:30:09;;;;;;;3.47;2.45;;;;;;;-143.35;100.00;58682.94;5017891;28;20068;-48
2022/01/02 08:32:36;;;;;;;7.32;2.47;;;;;;;-143.35;100.00;58682.94;5016501;28;20038;-48
2022/01/02 08:35:02;;;;;;;5.07;2.90;;;;;;;-143.35;100.00;58682.94;5017734;28;20491;-49
2022/01/02 08:37:27;;;;;;;5.45;2.65;;;;;;;-143.35;100.00;58682.94;5017722;28;20112;-49
2022/01/02 08:39:52;;;;;;;7.97;2.97;;;;;;;-143.35;100.00;58682.94;5017682;28;20109;-50
2022/01/02 08:42:18;;;;;;;5.10;2.55;;;;;;;-143.35;100.00;58682.94;5016432;28;20034;-48
2022/01/02 08:44:44;;;;;;;5.35;3.20;;;;;;;-143.35;100.00;58682.94;5017593;28;20018;-48
2022/01/02 08:47:10;;;;;;;4.32;2.75;;;;;;;-143.35;100.00;58682.94;5017423;28;20057;-48
2022/01/02 08:49:36;;;;;;;6.20;2.47;;;;;;;-143.35;100.00;58682.94;5017461;28;20033;-49
2022/01/02 08:52:01;;;;;;;3.75;2.17;;;;;;;-143.35;100.00;58682.94;5017528;28;20370;-48
2022/01/02 08:54:27;;;;;;;4.28;2.67;;;;;;;-143.35;100.00;58682.94;5017403;28;20021;-49
2022/01/02 08:56:52;;;;;;;3.40;2.45;;;;;;;-143.35;100.00;58682.94;5017419;28;20455;-49
2022/01/02 08:59:21;;;;;;;7.00;2.80;;;;;;;-143.35;100.00;58682.94;5017344;28;20053;-49
2022/01/02 09:01:47;;;;;;;2.50;2.28;;;;;;;-143.35;100.00;58682.94;5017268;28;20393;-48
2022/01/02 09:04:12;;;;;;;3.95;2.88;;;;;;;-143.35;100.00;58682.94;5017233;28;20029;-48
2022/01/02 09:06:37;;;;;;;4.53;2.33;;;;;;;-143.35;100.00;58682.94;5017001;28;20030;-48
2022/01/02 09:09:03;;;;;;;9.52;2.30;;;;;;;-143.35;100.00;58682.94;5017004;28;20061;-49
2022/01/02 09:11:28;;;;;;;3.25;2.83;;;;;;;-143.35;100.00;58682.94;5017075;28;20120;-51
2022/01/02 09:13:53;;;;;;;3.15;2.20;;;;;;;-143.35;100.00;58682.94;5016837;28;20036;-52
2022/01/02 09:16:19;;;;;;;7.55;3.08;;;;;;;-143.35;100.00;58682.94;5017090;28;20113;-50
2022/01/02 09:18:44;;;;;;;4.57;2.30;;;;;;;-143.35;100.00;58682.94;5016900;28;20066;-47
2022/01/02 09:21:10;;;;;;;5.43;2.28;;;;;;;-143.35;100.00;58682.94;5015631;28;20112;-50
2022/01/02 09:23:36;;;;;;;5.80;3.20;;;;;;;-143.35;100.00;58682.94;5016759;28;20030;-48
2022/01/02 09:26:01;;;;;;;3.85;2.03;;;;;;;-143.35;100.00;58682.94;5015527;28;20025;-48
2022/01/02 09:28:27;;;;;;;3.55;2.25;;;;;;;-143.35;100.00;58682.94;5016694;28;20030;-51
2022/01/02 09:30:52;;;;;;;2.95;2.08;;;;;;;-143.35;100.00;58682.94;5016835;28;20449;-51
2022/01/02 09:33:18;;;;;;;8.32;2.55;;;;;;;-143.35;100.00;58682.94;5016579;28;20550;-49
2022/01/02 09:35:43;;;;;;;3.35;2.70;;;;;;;-143.35;100.00;58682.94;5016643;28;20060;-49
2022/01/02 09:38:09;;;;;;;4.07;2.05;;;;;;;-143.35;100.00;58682.94;5016561;28;20538;-48
2022/01/02 09:40:35;;;;;;;8.02;2.67;;;;;;;-143.35;100.00;58682.94;5016460;28;20028;-48
2022/01/02 09:43:03;;;;;;;5.18;2.47;;;;;;;-143.35;100.00;58682.94;5016666;28;20091;-51
2022/01/02 09:45:33;;;;;;;5.97;2.33;;;;;;;-143.35;100.00;58682.94;5016420;28;20381;-49
2022/01/02 09:47:59;;;;;;;4.80;2.27;;;;;;;-143.35;100.00;58682.94;5016238;28;20539;-50
2022/01/02 09:50:25;;;;;;;5.13;2.60;;;;;;;-143.35;100.00;58682.94;5016363;28;20281;-50
2022/01/02 09:52:51;;;;;;;5.50;2.47;;;;;;;-143.35;100.00;58682.94;5016290;28;20076;-49
2022/01/02 09:55:16;;;;;;;7.13;2.80;;;;;;;-143.35;100.00;58682.94;5016186;28;20037;-51
2022/01/02 09:57:43;;;;;;;4.70;2.50;;;;;;;-143.35;100.00;58682.94;5016256;28;20369;-48
2022/01/02 10:00:09;;;;;;;8.70;2.50;;;;;;;-143.35;100.00;58682.94;5016120;28;20029;-49
2022/01/02 10:03:00;;;;;;;6.13;2.72;;;;;;;-143.35;100.00;58682.94;5015930;28;20025;-49
2022/01/02 10:05:28;;;;;;;6.18;2.55;;;;;;;-143.35;100.00;58682.94;5016029;28;20114;-51
2022/01/02 10:07:55;;;;;;;5.45;2.42;;;;;;;-143.35;100.00;58682.94;5015967;28;20036;-48
2022/01/02 10:10:31;;;;;;;5.95;2.53;;;;;;;-143.35;100.00;58682.94;5015904;28;20030;-48
2022/01/02 10:13:01;;;;;;;10.32;2.72;;;;;;;-143.35;100.00;58682.94;5016010;28;20551;-50
2022/01/02 10:15:28;;;;;;;5.50;2.63;;;;;;;-143.35;100.00;58682.94;5015558;28;20053;-48
2022/01/02 10:18:08;;;;;;;6.68;2.35;;;;;;;-143.35;100.00;58682.94;5016810;28;20025;-48
2022/01/02 10:20:41;;;;;;;10.65;2.70;;;;;;;-143.35;100.00;58682.94;5016084;28;20057;-47
2022/01/02 10:23:06;;;;;;;5.95;2.70;;;;;;;-143.35;100.00;58682.94;5015938;28;20432;-48
2022/01/02 10:25:48;;;;;;;8.57;2.75;;;;;;;-143.35;100.00;58682.94;5015715;28;20075;-48
2022/01/02 10:28:26;;;;;;;4.63;2.45;;;;;;;-143.35;100.00;58682.94;5015485;28;20037;-47
2022/01/02 10:30:58;;;;;;;8.80;2.92;;;;;;;-143.35;100.00;58682.94;5015208;28;20018;-48
2022/01/02 10:33:24;;;;;;;4.38;2.75;;;;;;;-143.35;100.00;58682.94;5015520;28;20105;-48
2022/01/02 10:35:57;;;;;;;4.97;2.75;;;;;;;-143.35;100.00;58682.94;5015553;28;20030;-48
2022/01/02 10:38:22;;;;;;;7.82;3.08;;;;;;;-143.35;100.00;58682.94;5015442;28;20033;-50
2022/01/02 10:40:48;;;;;;;6.88;3.25;;;;;;;-143.35;100.00;58682.94;5015518;28;20072;-49
2022/01/02 10:43:33;;;;;;;4.85;3.03;;;;;;;-143.35;100.00;58682.94;5015297;28;20057;-50
2022/01/02 10:46:07;;;;;;;8.10;2.35;;;;;;;-143.35;100.00;58682.94;5015467;28;20116;-48
2022/01/02 10:48:38;;;;;;;6.10;2.85;;;;;;;-143.35;100.00;58682.94;5013995;28;20034;-48
2022/01/02 10:51:03;;;;;;;4.30;2.63;;;;;;;-143.35;100.00;58682.94;5015205;28;20026;-48
2022/01/02 10:53:30;;;;;;;6.75;2.67;;;;;;;-143.35;100.00;58682.94;5015211;28;20083;-48
2022/01/02 10:55:56;;;;;;;4.43;2.75;;;;;;;-143.35;100.00;58682.94;5015070;28;20052;-49
2022/01/02 10:58:22;;;;;;;4.82;3.08;;;;;;;-143.35;100.00;58682.94;5015063;28;20022;-50
2022/01/02 11:00:48;;;;;;;11.68;2.65;;;;;;;-143.35;100.00;58682.94;5014986;28;20470;-48
2022/01/02 11:03:13;;;;;;;12.23;6.32;;;;;;;-143.35;100.00;58682.94;5013690;28;20049;-50
2022/01/02 11:05:39;;;;;;;11.50;5.50;;;;;;;-143.35;100.00;58682.94;5014947;28;20029;-48
2022/01/02 11:08:05;;;;;;;10.50;4.97;;;;;;;-143.35;100.00;58682.94;5014725;28;20026;-50
2022/01/02 11:10:35;;;;;;;10.77;5.25;;;;;;;-143.35;100.00;58682.94;5014672;28;20032;-51
2022/01/02 11:13:03;;;;;;;8.37;4.83;;;;;;;-143.35;100.00;58682.94;5014746;28;20036;-48